createdAt,value
2023-04-18T00:02:56.015Z,6.80
2023-04-18T00:08:00.368Z,6.00
2023-04-18T00:13:05.655Z,6.40
2023-04-18T00:18:10.704Z,6.20
2023-04-18T00:23:15.245Z,6.30
2023-04-18T00:28:19.284Z,6.10
2023-04-18T00:33:23.489Z,6.60
2023-04-18T00:38:28.884Z,6.50
2023-04-18T00:43:35.361Z,6.00
2023-04-18T00:48:39.876Z,6.40
2023-04-18T00:53:45.276Z,6.00
2023-04-18T00:58:50.020Z,6.50
2023-04-18T01:03:55.382Z,6.60
2023-04-18T01:08:59.826Z,6.50
2023-04-18T01:14:08.855Z,6.20
2023-04-18T01:19:13.211Z,6.30
2023-04-18T01:24:18.352Z,6.10
2023-04-18T01:29:22.304Z,6.30
2023-04-18T01:34:26.620Z,5.80
2023-04-18T01:39:30.982Z,6.30
2023-04-18T01:44:34.718Z,6.20
2023-04-18T01:49:39.964Z,5.40
2023-04-18T01:54:43.818Z,6.20
2023-04-18T01:59:47.819Z,6.00
2023-04-18T02:04:51.841Z,5.10
2023-04-18T02:09:55.896Z,6.10
2023-04-18T02:14:59.748Z,5.30
2023-04-18T02:20:04.504Z,5.40
2023-04-18T02:25:08.972Z,5.60
2023-04-18T02:30:13.304Z,5.70
2023-04-18T02:35:17.175Z,5.10
2023-04-18T02:40:21.219Z,5.00
2023-04-18T02:45:26.495Z,4.80
2023-04-18T02:50:31.246Z,4.90
2023-04-18T02:55:35.460Z,5.60
2023-04-18T03:00:39.927Z,5.30
2023-04-18T03:05:55.089Z,5.00
2023-04-18T03:10:59.430Z,5.10
2023-04-18T03:16:04.651Z,4.80
2023-04-18T03:21:09.234Z,5.20
2023-04-18T03:26:14.223Z,4.90
2023-04-18T03:31:18.755Z,4.90
2023-04-18T03:36:25.722Z,4.40
2023-04-18T03:41:30.695Z,5.50
2023-04-18T03:46:35.581Z,4.90
2023-04-18T03:51:48.066Z,5.10
2023-04-18T03:56:52.394Z,4.70
2023-04-18T04:01:57.435Z,4.40
2023-04-18T04:07:02.183Z,4.40
2023-04-18T04:12:06.847Z,4.40
2023-04-18T04:17:11.185Z,4.60
2023-04-18T04:22:16.658Z,5.00
2023-04-18T04:27:20.798Z,5.40
2023-04-18T04:32:25.707Z,5.00
2023-04-18T04:37:30.606Z,4.90
2023-04-18T04:42:49.454Z,4.70
2023-04-18T04:47:59.152Z,4.40
2023-04-18T04:53:03.164Z,4.70
2023-04-18T04:58:07.402Z,4.50
2023-04-18T05:03:35.517Z,4.50
2023-04-18T05:08:40.834Z,4.30
2023-04-18T05:13:44.977Z,4.20
2023-04-18T05:18:48.898Z,4.40
2023-04-18T05:23:52.830Z,4.40
2023-04-18T05:28:56.877Z,4.80
2023-04-18T05:34:00.993Z,3.80
2023-04-18T05:39:05.034Z,4.20
2023-04-18T05:44:09.700Z,3.90
2023-04-18T05:49:13.504Z,4.20
2023-04-18T05:54:18.928Z,4.20
2023-04-18T05:59:23.009Z,4.70
2023-04-18T06:04:27.171Z,4.90
2023-04-18T06:09:31.182Z,4.30
2023-04-18T06:14:35.307Z,4.20
2023-04-18T06:19:39.967Z,4.50
2023-04-18T06:24:43.829Z,4.80
2023-04-18T06:29:47.710Z,4.30
2023-04-18T06:34:53.293Z,4.90
2023-04-18T06:39:57.224Z,4.30
2023-04-18T06:45:01.338Z,4.90
2023-04-18T06:50:06.943Z,4.50
2023-04-18T06:55:14.641Z,4.10
2023-04-18T07:00:19.218Z,4.50
2023-04-18T07:05:23.206Z,4.90
2023-04-18T07:10:27.145Z,5.00
2023-04-18T07:15:31.161Z,5.40
2023-04-18T07:20:35.161Z,5.40
2023-04-18T07:25:41.060Z,5.60
2023-04-18T07:30:45.757Z,5.00
2023-04-18T07:35:50.770Z,5.30
2023-04-18T07:41:01.878Z,5.10
2023-04-18T07:46:06.760Z,5.10
2023-04-18T07:51:12.077Z,4.80
2023-04-18T07:56:15.912Z,5.70
2023-04-18T08:01:24.332Z,5.00
2023-04-18T08:06:29.150Z,5.10
2023-04-18T08:11:34.469Z,4.90
2023-04-18T08:16:39.822Z,4.50
2023-04-18T08:21:43.969Z,4.70
2023-04-18T08:26:47.988Z,4.80
2023-04-18T08:31:51.960Z,5.00
2023-04-18T08:36:56.038Z,4.90
2023-04-18T08:42:01.918Z,5.30
2023-04-18T08:47:09.088Z,4.60
2023-04-18T08:52:19.882Z,4.50
2023-04-18T08:57:27.272Z,4.70
2023-04-18T09:02:43.054Z,4.80
2023-04-18T09:07:48.566Z,4.70
2023-04-18T09:12:52.719Z,4.60
2023-04-18T09:18:03.371Z,5.00
2023-04-18T09:23:14.990Z,5.10
2023-04-18T09:28:33.740Z,4.90
2023-04-18T09:33:38.747Z,4.80
2023-04-18T09:38:42.671Z,5.50
2023-04-18T09:43:47.530Z,4.80
2023-04-18T09:48:51.561Z,7.90
2023-04-18T09:53:55.685Z,6.20
2023-04-18T09:59:11.994Z,6.30
2023-04-18T10:04:17.115Z,6.10
2023-04-18T10:09:22.825Z,6.30
2023-04-18T10:14:28.446Z,6.20
2023-04-18T10:19:32.418Z,6.50
2023-04-18T10:24:55.306Z,6.40
2023-04-18T10:29:59.117Z,6.50
2023-04-18T10:35:03.471Z,5.90
2023-04-18T10:40:08.297Z,5.90
2023-04-18T10:45:22.730Z,6.40
2023-04-18T10:50:26.818Z,6.20
2023-04-18T10:55:31.860Z,6.90
2023-04-18T11:00:35.946Z,6.40
2023-04-18T11:05:40.049Z,6.20
2023-04-18T11:10:58.169Z,7.00
2023-04-18T11:16:02.742Z,6.60
2023-04-18T11:21:06.666Z,6.10
2023-04-18T11:26:13.129Z,5.70
2023-04-18T11:31:16.983Z,6.10
2023-04-18T11:36:21.512Z,6.70
2023-04-18T11:41:25.353Z,6.90
2023-04-18T11:46:39.198Z,8.00
2023-04-18T11:51:46.760Z,8.70
2023-04-18T11:56:50.737Z,7.50
2023-04-18T12:02:15.624Z,7.50
2023-04-18T12:07:50.496Z,7.70
2023-04-18T12:12:57.818Z,7.80
2023-04-18T12:18:04.229Z,7.50
2023-04-18T12:23:08.834Z,7.60
2023-04-18T12:28:16.859Z,7.60
2023-04-18T12:33:20.892Z,7.70
2023-04-18T12:38:25.426Z,7.70
2023-04-18T12:43:29.279Z,7.50
2023-04-18T12:48:33.222Z,7.70
2023-04-18T12:54:08.554Z,7.50
2023-04-18T12:59:12.843Z,7.80
2023-04-18T13:04:17.317Z,7.20
2023-04-18T13:09:21.763Z,7.80
2023-04-18T13:14:25.680Z,7.60
2023-04-18T13:19:29.833Z,7.90
2023-04-18T13:24:33.787Z,8.30
2023-04-18T13:29:40.337Z,8.80
2023-04-18T13:34:47.708Z,7.80
2023-04-18T13:39:51.815Z,8.70
2023-04-18T13:44:55.921Z,8.30
2023-04-18T13:49:59.873Z,8.30
2023-04-18T13:55:04.421Z,8.00
2023-04-18T14:00:09.593Z,8.40
2023-04-18T14:05:16.657Z,8.10
2023-04-18T14:10:22.020Z,8.20
2023-04-18T14:15:26.363Z,8.10
2023-04-18T14:20:34.913Z,8.20
2023-04-18T14:25:38.829Z,8.30
2023-04-18T14:30:42.746Z,8.30
2023-04-18T14:35:46.789Z,8.50
2023-04-18T14:40:50.810Z,8.30
2023-04-18T14:45:54.644Z,7.80
2023-04-18T14:51:00.150Z,7.80
2023-04-18T14:56:04.761Z,8.40
2023-04-18T15:01:08.906Z,7.90
2023-04-18T15:06:13.043Z,9.30
2023-04-18T15:11:17.053Z,8.20
2023-04-18T15:16:21.252Z,8.50
2023-04-18T15:21:25.341Z,7.80
2023-04-18T15:26:32.341Z,8.10
2023-04-18T15:31:39.048Z,8.60
2023-04-18T15:36:43.673Z,8.30
2023-04-18T15:41:47.724Z,8.70
2023-04-18T15:46:52.171Z,8.90
2023-04-18T15:51:57.141Z,9.40
2023-04-18T15:57:00.955Z,8.70
2023-04-18T16:02:07.153Z,18.80
2023-04-18T16:07:12.286Z,15.80
2023-04-18T16:12:16.219Z,14.30
2023-04-18T16:17:20.239Z,13.40
2023-04-18T16:22:24.265Z,13.50
2023-04-18T16:27:28.715Z,13.50
2023-04-18T16:32:34.038Z,12.70
2023-04-18T16:37:39.854Z,12.20
2023-04-18T16:42:43.788Z,13.00
2023-04-18T16:47:48.673Z,12.50
2023-04-18T16:52:52.666Z,12.20
2023-04-18T16:57:57.229Z,13.20
2023-04-18T17:03:02.239Z,12.50
2023-04-18T17:08:07.647Z,12.80
2023-04-18T17:13:12.078Z,13.50
2023-04-18T17:18:16.617Z,13.10
2023-04-18T17:23:21.410Z,12.80
2023-04-18T17:28:27.138Z,12.50
2023-04-18T17:33:32.949Z,12.50
2023-04-18T17:38:38.597Z,12.70
2023-04-18T17:43:46.116Z,12.50
2023-04-18T17:48:51.562Z,12.30
2023-04-18T17:53:59.292Z,12.30
2023-04-18T17:59:08.192Z,13.10
2023-04-18T18:04:14.299Z,12.10
2023-04-18T18:09:20.591Z,11.80
2023-04-18T18:14:31.800Z,13.30
2023-04-18T18:19:37.766Z,12.20
2023-04-18T18:24:44.398Z,12.40
2023-04-18T18:29:52.433Z,11.70
2023-04-18T18:34:59.266Z,12.30
2023-04-18T18:40:10.521Z,11.20
2023-04-18T18:45:16.444Z,11.40
2023-04-18T18:50:22.188Z,12.00
2023-04-18T18:55:27.575Z,12.00
2023-04-18T19:00:32.765Z,11.70
2023-04-18T19:05:39.721Z,11.50
2023-04-18T19:10:49.720Z,12.60
2023-04-18T19:15:56.580Z,12.20
2023-04-18T19:21:03.602Z,10.80
2023-04-18T19:26:11.970Z,11.40
2023-04-18T19:31:20.111Z,13.00
2023-04-18T19:36:26.560Z,11.20
2023-04-18T19:41:33.260Z,11.90
2023-04-18T19:46:39.336Z,11.10
2023-04-18T19:51:45.140Z,12.80
2023-04-18T19:56:53.090Z,11.60
2023-04-18T20:02:06.687Z,12.10
2023-04-18T20:07:12.736Z,10.90
2023-04-18T20:12:18.425Z,11.40
2023-04-18T20:17:24.854Z,10.60
2023-04-18T20:22:34.154Z,11.30
2023-04-18T20:27:39.411Z,10.10
2023-04-18T20:32:44.317Z,10.70
2023-04-18T20:37:53.412Z,10.80
2023-04-18T20:42:59.088Z,10.20
2023-04-18T20:48:04.448Z,10.40
2023-04-18T20:53:08.573Z,10.00
2023-04-18T20:58:12.808Z,10.20
2023-04-18T21:03:17.662Z,9.90
2023-04-18T21:08:22.743Z,10.20
2023-04-18T21:13:26.882Z,9.70
2023-04-18T21:18:31.107Z,9.30
2023-04-18T21:23:41.987Z,9.90
2023-04-18T21:28:58.856Z,9.20
2023-04-18T21:34:04.818Z,9.10
2023-04-18T21:39:08.693Z,9.40
2023-04-18T21:44:13.478Z,8.70
2023-04-18T21:49:17.605Z,8.80
2023-04-18T21:54:21.639Z,9.00
2023-04-18T21:59:25.774Z,9.10
2023-04-18T22:04:29.645Z,8.80
2023-04-18T22:09:36.674Z,9.90
2023-04-18T22:14:42.460Z,9.50
2023-04-18T22:19:48.550Z,9.10
2023-04-18T22:24:52.700Z,9.20
2023-04-18T22:29:56.830Z,9.30
2023-04-18T22:35:00.750Z,9.20
2023-04-18T22:40:08.996Z,8.80
2023-04-18T22:45:13.916Z,8.70
2023-04-18T22:50:17.880Z,9.30
2023-04-18T22:55:22.062Z,8.70
2023-04-18T23:00:26.340Z,8.20
2023-04-18T23:05:30.611Z,8.50
2023-04-18T23:10:34.913Z,8.10
2023-04-18T23:15:38.762Z,8.30
2023-04-18T23:20:42.903Z,8.30
2023-04-18T23:25:46.918Z,8.40
2023-04-18T23:30:50.957Z,8.30
2023-04-18T23:35:54.887Z,8.60
2023-04-18T23:40:58.920Z,7.70
2023-04-18T23:46:03.138Z,8.00
2023-04-18T23:51:07.178Z,8.20
2023-04-18T23:56:11.209Z,7.50
